sensor_id;sensor_type;location;lat;lon;timestamp;temperature;humidity
8633;DHT22;4354;49.832;10.746;2022-12-18T00:03:42;-12.60;99.90
8633;DHT22;4354;49.832;10.746;2022-12-18T00:06:10;-12.60;99.90
8633;DHT22;4354;49.832;10.746;2022-12-18T00:08:38;-12.60;99.90
8633;DHT22;4354;49.832;10.746;2022-12-18T00:11:07;-12.60;99.90
8633;DHT22;4354;49.832;10.746;2022-12-18T00:13:34;-12.50;99.90
8633;DHT22;4354;49.832;10.746;2022-12-18T00:16:08;-12.60;99.90
8633;DHT22;4354;49.832;10.746;2022-12-18T00:18:35;-12.60;99.90
8633;DHT22;4354;49.832;10.746;2022-12-18T00:21:06;-12.60;99.90
8633;DHT22;4354;49.832;10.746;2022-12-18T00:23:34;-12.70;99.90
8633;DHT22;4354;49.832;10.746;2022-12-18T00:26:04;-12.70;99.90
8633;DHT22;4354;49.832;10.746;2022-12-18T00:28:32;-12.70;99.90
8633;DHT22;4354;49.832;10.746;2022-12-18T00:31:01;-12.70;99.90
8633;DHT22;4354;49.832;10.746;2022-12-18T00:33:28;-12.80;99.90
8633;DHT22;4354;49.832;10.746;2022-12-18T00:35:59;-12.80;99.90
8633;DHT22;4354;49.832;10.746;2022-12-18T00:38:26;-12.80;99.90
8633;DHT22;4354;49.832;10.746;2022-12-18T00:40:53;-12.80;99.90
8633;DHT22;4354;49.832;10.746;2022-12-18T00:43:20;-12.80;99.90
8633;DHT22;4354;49.832;10.746;2022-12-18T00:45:46;-12.80;99.90
8633;DHT22;4354;49.832;10.746;2022-12-18T00:48:13;-12.90;99.90
8633;DHT22;4354;49.832;10.746;2022-12-18T00:50:40;-12.90;99.90
8633;DHT22;4354;49.832;10.746;2022-12-18T00:53:07;-12.90;99.90
8633;DHT22;4354;49.832;10.746;2022-12-18T00:55:33;-12.90;99.90
8633;DHT22;4354;49.832;10.746;2022-12-18T00:58:00;-13.00;99.90
8633;DHT22;4354;49.832;10.746;2022-12-18T01:00:27;-13.00;99.90
8633;DHT22;4354;49.832;10.746;2022-12-18T01:02:54;-13.00;99.90
8633;DHT22;4354;49.832;10.746;2022-12-18T01:05:20;-13.00;99.90
8633;DHT22;4354;49.832;10.746;2022-12-18T01:07:47;-13.00;99.90
8633;DHT22;4354;49.832;10.746;2022-12-18T01:10:14;-13.00;99.90
8633;DHT22;4354;49.832;10.746;2022-12-18T01:12:41;-13.00;99.90
8633;DHT22;4354;49.832;10.746;2022-12-18T01:15:09;-13.00;99.90
8633;DHT22;4354;49.832;10.746;2022-12-18T01:17:36;-12.90;99.90
8633;DHT22;4354;49.832;10.746;2022-12-18T01:20:03;-12.80;99.90
8633;DHT22;4354;49.832;10.746;2022-12-18T01:22:30;-12.80;99.90
8633;DHT22;4354;49.832;10.746;2022-12-18T01:24:57;-12.80;99.90
8633;DHT22;4354;49.832;10.746;2022-12-18T01:27:24;-12.80;99.90
8633;DHT22;4354;49.832;10.746;2022-12-18T01:29:51;-12.80;99.90
8633;DHT22;4354;49.832;10.746;2022-12-18T01:32:18;-12.90;99.90
8633;DHT22;4354;49.832;10.746;2022-12-18T01:34:44;-12.90;99.90
8633;DHT22;4354;49.832;10.746;2022-12-18T01:37:11;-12.90;99.90
8633;DHT22;4354;49.832;10.746;2022-12-18T01:39:38;-12.90;99.90
8633;DHT22;4354;49.832;10.746;2022-12-18T01:42:15;-12.90;99.90
8633;DHT22;4354;49.832;10.746;2022-12-18T01:47:53;-12.90;99.90
8633;DHT22;4354;49.832;10.746;2022-12-18T01:50:27;-12.90;99.90
8633;DHT22;4354;49.832;10.746;2022-12-18T01:53:19;-12.80;99.90
8633;DHT22;4354;49.832;10.746;2022-12-18T01:55:52;-12.80;99.90
8633;DHT22;4354;49.832;10.746;2022-12-18T01:58:21;-12.80;99.90
8633;DHT22;4354;49.832;10.746;2022-12-18T02:00:49;-12.80;99.90
8633;DHT22;4354;49.832;10.746;2022-12-18T02:03:16;-12.80;99.90
8633;DHT22;4354;49.832;10.746;2022-12-18T02:08:28;-12.80;99.90
8633;DHT22;4354;49.832;10.746;2022-12-18T02:11:13;-12.70;99.90
8633;DHT22;4354;49.832;10.746;2022-12-18T02:16:16;-12.70;99.90
8633;DHT22;4354;49.832;10.746;2022-12-18T02:18:49;-12.70;99.90
8633;DHT22;4354;49.832;10.746;2022-12-18T02:24:39;-12.70;99.90
8633;DHT22;4354;49.832;10.746;2022-12-18T02:27:11;-12.70;99.90
8633;DHT22;4354;49.832;10.746;2022-12-18T02:29:46;-12.60;99.90
8633;DHT22;4354;49.832;10.746;2022-12-18T02:32:27;-12.60;99.90
8633;DHT22;4354;49.832;10.746;2022-12-18T02:34:56;-12.60;99.90
8633;DHT22;4354;49.832;10.746;2022-12-18T02:37:25;-12.50;99.90
8633;DHT22;4354;49.832;10.746;2022-12-18T02:39:55;-12.50;99.90
8633;DHT22;4354;49.832;10.746;2022-12-18T02:42:23;-12.50;99.90
8633;DHT22;4354;49.832;10.746;2022-12-18T02:44:51;-12.60;99.90
8633;DHT22;4354;49.832;10.746;2022-12-18T02:47:24;-12.60;99.90
8633;DHT22;4354;49.832;10.746;2022-12-18T02:58:32;-12.70;99.90
8633;DHT22;4354;49.832;10.746;2022-12-18T03:01:09;-12.70;99.90
8633;DHT22;4354;49.832;10.746;2022-12-18T03:03:47;-12.70;99.90
8633;DHT22;4354;49.832;10.746;2022-12-18T03:06:33;-12.70;99.90
8633;DHT22;4354;49.832;10.746;2022-12-18T03:09:12;-12.70;99.90
8633;DHT22;4354;49.832;10.746;2022-12-18T03:11:46;-12.80;99.90
8633;DHT22;4354;49.832;10.746;2022-12-18T03:14:34;-12.80;99.90
8633;DHT22;4354;49.832;10.746;2022-12-18T03:17:06;-12.80;99.90
8633;DHT22;4354;49.832;10.746;2022-12-18T03:19:35;-12.90;99.90
8633;DHT22;4354;49.832;10.746;2022-12-18T03:22:06;-12.90;99.90
8633;DHT22;4354;49.832;10.746;2022-12-18T03:24:34;-12.90;99.90
8633;DHT22;4354;49.832;10.746;2022-12-18T03:27:07;-12.40;99.90
8633;DHT22;4354;49.832;10.746;2022-12-18T03:29:38;-13.00;99.90
8633;DHT22;4354;49.832;10.746;2022-12-18T03:32:12;-13.00;99.90
8633;DHT22;4354;49.832;10.746;2022-12-18T03:34:42;-13.00;99.90
8633;DHT22;4354;49.832;10.746;2022-12-18T03:37:09;-13.10;99.90
8633;DHT22;4354;49.832;10.746;2022-12-18T03:39:36;-13.10;99.90
8633;DHT22;4354;49.832;10.746;2022-12-18T03:47:50;-13.00;99.90
8633;DHT22;4354;49.832;10.746;2022-12-18T03:55:35;-12.90;99.90
8633;DHT22;4354;49.832;10.746;2022-12-18T03:58:03;-12.90;99.90
8633;DHT22;4354;49.832;10.746;2022-12-18T04:00:33;-13.00;99.90
8633;DHT22;4354;49.832;10.746;2022-12-18T04:03:01;-13.00;99.90
8633;DHT22;4354;49.832;10.746;2022-12-18T04:05:28;-13.00;99.90
8633;DHT22;4354;49.832;10.746;2022-12-18T04:07:57;-13.00;99.90
8633;DHT22;4354;49.832;10.746;2022-12-18T04:10:24;-13.00;99.90
8633;DHT22;4354;49.832;10.746;2022-12-18T04:12:51;-12.90;99.90
8633;DHT22;4354;49.832;10.746;2022-12-18T04:15:21;-12.90;99.90
8633;DHT22;4354;49.832;10.746;2022-12-18T04:17:49;-12.90;99.90
8633;DHT22;4354;49.832;10.746;2022-12-18T04:20:16;-12.90;99.90
8633;DHT22;4354;49.832;10.746;2022-12-18T04:22:43;-12.90;99.90
8633;DHT22;4354;49.832;10.746;2022-12-18T04:25:11;-12.90;99.90
8633;DHT22;4354;49.832;10.746;2022-12-18T04:27:38;-12.90;99.90
8633;DHT22;4354;49.832;10.746;2022-12-18T04:30:06;-12.80;99.90
8633;DHT22;4354;49.832;10.746;2022-12-18T04:32:34;-12.60;99.90
8633;DHT22;4354;49.832;10.746;2022-12-18T04:35:01;-12.30;99.90
8633;DHT22;4354;49.832;10.746;2022-12-18T04:37:27;-12.10;99.90
8633;DHT22;4354;49.832;10.746;2022-12-18T04:39:54;-11.90;99.90
8633;DHT22;4354;49.832;10.746;2022-12-18T04:42:21;-11.70;99.90
8633;DHT22;4354;49.832;10.746;2022-12-18T04:44:48;-11.60;99.90
8633;DHT22;4354;49.832;10.746;2022-12-18T04:47:14;-11.50;99.90
8633;DHT22;4354;49.832;10.746;2022-12-18T04:49:41;-11.40;99.90
8633;DHT22;4354;49.832;10.746;2022-12-18T04:52:08;-11.30;99.90
8633;DHT22;4354;49.832;10.746;2022-12-18T04:54:35;-11.20;99.90
8633;DHT22;4354;49.832;10.746;2022-12-18T04:57:01;-11.10;99.90
8633;DHT22;4354;49.832;10.746;2022-12-18T04:59:28;-10.90;99.90
8633;DHT22;4354;49.832;10.746;2022-12-18T05:01:55;-10.80;99.90
8633;DHT22;4354;49.832;10.746;2022-12-18T05:04:22;-10.70;99.90
8633;DHT22;4354;49.832;10.746;2022-12-18T05:06:49;-10.50;99.90
8633;DHT22;4354;49.832;10.746;2022-12-18T05:09:16;-10.40;99.90
8633;DHT22;4354;49.832;10.746;2022-12-18T05:11:45;-10.30;99.90
8633;DHT22;4354;49.832;10.746;2022-12-18T05:14:13;-10.50;99.90
8633;DHT22;4354;49.832;10.746;2022-12-18T05:16:40;-10.20;99.90
8633;DHT22;4354;49.832;10.746;2022-12-18T05:19:06;-10.20;99.90
8633;DHT22;4354;49.832;10.746;2022-12-18T05:21:33;-10.10;99.90
8633;DHT22;4354;49.832;10.746;2022-12-18T05:24:00;-10.00;99.90
8633;DHT22;4354;49.832;10.746;2022-12-18T05:26:27;-10.00;99.90
8633;DHT22;4354;49.832;10.746;2022-12-18T05:28:53;-10.00;99.90
8633;DHT22;4354;49.832;10.746;2022-12-18T05:31:20;-9.90;99.90
8633;DHT22;4354;49.832;10.746;2022-12-18T05:33:47;-9.90;99.90
8633;DHT22;4354;49.832;10.746;2022-12-18T05:36:14;-9.90;99.90
8633;DHT22;4354;49.832;10.746;2022-12-18T05:38:41;-9.80;99.90
8633;DHT22;4354;49.832;10.746;2022-12-18T05:41:08;-9.80;99.90
8633;DHT22;4354;49.832;10.746;2022-12-18T05:43:38;-9.70;99.90
8633;DHT22;4354;49.832;10.746;2022-12-18T05:46:07;-9.70;99.90
8633;DHT22;4354;49.832;10.746;2022-12-18T05:48:35;-9.60;99.90
8633;DHT22;4354;49.832;10.746;2022-12-18T05:51:13;-9.50;99.90
8633;DHT22;4354;49.832;10.746;2022-12-18T05:53:41;-9.50;99.90
8633;DHT22;4354;49.832;10.746;2022-12-18T05:56:11;-9.40;99.90
8633;DHT22;4354;49.832;10.746;2022-12-18T05:58:39;-9.40;99.90
8633;DHT22;4354;49.832;10.746;2022-12-18T06:01:10;-9.30;99.90
8633;DHT22;4354;49.832;10.746;2022-12-18T06:03:37;-9.20;99.90
8633;DHT22;4354;49.832;10.746;2022-12-18T06:06:11;-9.20;99.90
8633;DHT22;4354;49.832;10.746;2022-12-18T06:08:38;-9.20;99.90
8633;DHT22;4354;49.832;10.746;2022-12-18T06:11:12;-9.10;99.90
8633;DHT22;4354;49.832;10.746;2022-12-18T06:13:39;-9.00;99.90
8633;DHT22;4354;49.832;10.746;2022-12-18T06:16:07;-9.00;99.90
8633;DHT22;4354;49.832;10.746;2022-12-18T06:18:34;-9.00;99.90
8633;DHT22;4354;49.832;10.746;2022-12-18T06:21:01;-8.90;99.90
8633;DHT22;4354;49.832;10.746;2022-12-18T06:23:28;-8.80;99.90
8633;DHT22;4354;49.832;10.746;2022-12-18T06:25:55;-8.80;99.90
8633;DHT22;4354;49.832;10.746;2022-12-18T06:28:22;-8.70;99.90
8633;DHT22;4354;49.832;10.746;2022-12-18T06:30:49;-8.70;99.90
8633;DHT22;4354;49.832;10.746;2022-12-18T06:33:16;-8.70;99.90
8633;DHT22;4354;49.832;10.746;2022-12-18T06:35:43;-8.60;99.90
8633;DHT22;4354;49.832;10.746;2022-12-18T06:38:10;-8.50;99.90
8633;DHT22;4354;49.832;10.746;2022-12-18T06:40:37;-8.60;99.90
8633;DHT22;4354;49.832;10.746;2022-12-18T06:43:06;-8.50;99.90
8633;DHT22;4354;49.832;10.746;2022-12-18T06:45:32;-8.50;99.90
8633;DHT22;4354;49.832;10.746;2022-12-18T06:48:00;-8.40;99.90
8633;DHT22;4354;49.832;10.746;2022-12-18T06:50:27;-8.40;99.90
8633;DHT22;4354;49.832;10.746;2022-12-18T06:52:53;-8.40;99.90
8633;DHT22;4354;49.832;10.746;2022-12-18T06:55:20;-8.40;99.90
8633;DHT22;4354;49.832;10.746;2022-12-18T06:57:47;-8.30;99.90
8633;DHT22;4354;49.832;10.746;2022-12-18T07:00:14;-8.30;99.90
8633;DHT22;4354;49.832;10.746;2022-12-18T07:02:41;-8.20;99.90
8633;DHT22;4354;49.832;10.746;2022-12-18T07:05:08;-8.20;99.90
8633;DHT22;4354;49.832;10.746;2022-12-18T07:07:37;-8.20;99.90
8633;DHT22;4354;49.832;10.746;2022-12-18T07:10:04;-8.10;99.90
8633;DHT22;4354;49.832;10.746;2022-12-18T07:12:31;-8.10;99.90
8633;DHT22;4354;49.832;10.746;2022-12-18T07:14:57;-8.00;99.90
8633;DHT22;4354;49.832;10.746;2022-12-18T07:17:24;-8.00;99.90
8633;DHT22;4354;49.832;10.746;2022-12-18T07:19:51;-7.90;99.90
8633;DHT22;4354;49.832;10.746;2022-12-18T07:22:18;-7.90;99.90
8633;DHT22;4354;49.832;10.746;2022-12-18T07:24:45;-7.90;99.90
8633;DHT22;4354;49.832;10.746;2022-12-18T07:27:11;-7.80;99.90
8633;DHT22;4354;49.832;10.746;2022-12-18T07:29:38;-7.80;99.90
8633;DHT22;4354;49.832;10.746;2022-12-18T07:32:05;-7.80;99.90
8633;DHT22;4354;49.832;10.746;2022-12-18T07:34:34;-7.70;99.90
8633;DHT22;4354;49.832;10.746;2022-12-18T07:37:01;-7.70;99.90
8633;DHT22;4354;49.832;10.746;2022-12-18T07:39:28;-7.70;99.90
8633;DHT22;4354;49.832;10.746;2022-12-18T07:41:55;-7.60;99.90
8633;DHT22;4354;49.832;10.746;2022-12-18T07:44:40;-7.50;99.90
8633;DHT22;4354;49.832;10.746;2022-12-18T07:47:07;-7.50;99.90
8633;DHT22;4354;49.832;10.746;2022-12-18T07:49:37;-7.40;99.90
8633;DHT22;4354;49.832;10.746;2022-12-18T07:52:04;-7.40;99.90
8633;DHT22;4354;49.832;10.746;2022-12-18T07:54:31;-7.40;99.90
8633;DHT22;4354;49.832;10.746;2022-12-18T07:56:58;-7.40;99.90
8633;DHT22;4354;49.832;10.746;2022-12-18T07:59:26;-7.30;99.90
8633;DHT22;4354;49.832;10.746;2022-12-18T08:01:52;-7.30;99.90
8633;DHT22;4354;49.832;10.746;2022-12-18T08:04:19;-7.20;99.90
8633;DHT22;4354;49.832;10.746;2022-12-18T08:06:46;-7.20;99.90
8633;DHT22;4354;49.832;10.746;2022-12-18T08:09:14;-7.20;99.90
8633;DHT22;4354;49.832;10.746;2022-12-18T08:11:41;-7.10;99.90
8633;DHT22;4354;49.832;10.746;2022-12-18T08:14:07;-7.10;99.90
8633;DHT22;4354;49.832;10.746;2022-12-18T08:16:34;-7.10;99.90
8633;DHT22;4354;49.832;10.746;2022-12-18T08:19:01;-7.00;99.90
8633;DHT22;4354;49.832;10.746;2022-12-18T08:21:30;-7.00;99.90
8633;DHT22;4354;49.832;10.746;2022-12-18T08:24:01;-6.90;99.90
8633;DHT22;4354;49.832;10.746;2022-12-18T08:26:29;-6.90;99.90
8633;DHT22;4354;49.832;10.746;2022-12-18T08:28:58;-6.80;99.90
8633;DHT22;4354;49.832;10.746;2022-12-18T08:31:26;-6.80;99.90
8633;DHT22;4354;49.832;10.746;2022-12-18T08:33:54;-6.80;99.90
8633;DHT22;4354;49.832;10.746;2022-12-18T08:36:21;-6.70;99.90
8633;DHT22;4354;49.832;10.746;2022-12-18T08:38:50;-6.70;99.90
8633;DHT22;4354;49.832;10.746;2022-12-18T08:41:17;-6.70;99.90
8633;DHT22;4354;49.832;10.746;2022-12-18T08:43:44;-6.60;99.90
8633;DHT22;4354;49.832;10.746;2022-12-18T08:46:36;-6.60;99.90
8633;DHT22;4354;49.832;10.746;2022-12-18T08:49:04;-6.60;99.90
8633;DHT22;4354;49.832;10.746;2022-12-18T08:51:33;-6.60;99.90
8633;DHT22;4354;49.832;10.746;2022-12-18T08:54:01;-6.50;99.90
8633;DHT22;4354;49.832;10.746;2022-12-18T08:56:28;-6.50;99.90
8633;DHT22;4354;49.832;10.746;2022-12-18T08:58:56;-6.40;99.90
8633;DHT22;4354;49.832;10.746;2022-12-18T09:01:24;-6.40;99.90
8633;DHT22;4354;49.832;10.746;2022-12-18T09:03:51;-6.40;99.90
8633;DHT22;4354;49.832;10.746;2022-12-18T09:06:19;-6.40;99.90
8633;DHT22;4354;49.832;10.746;2022-12-18T09:08:47;-6.50;99.90
8633;DHT22;4354;49.832;10.746;2022-12-18T09:11:19;-6.50;99.90
8633;DHT22;4354;49.832;10.746;2022-12-18T09:13:46;-6.40;99.90
8633;DHT22;4354;49.832;10.746;2022-12-18T09:16:13;-6.40;99.90
8633;DHT22;4354;49.832;10.746;2022-12-18T09:18:40;-6.30;99.90
8633;DHT22;4354;49.832;10.746;2022-12-18T09:21:13;-6.10;99.90
8633;DHT22;4354;49.832;10.746;2022-12-18T09:23:40;-6.00;99.90
8633;DHT22;4354;49.832;10.746;2022-12-18T09:26:08;-6.00;99.90
8633;DHT22;4354;49.832;10.746;2022-12-18T09:28:34;-6.00;99.90
8633;DHT22;4354;49.832;10.746;2022-12-18T09:31:06;-5.80;99.90
8633;DHT22;4354;49.832;10.746;2022-12-18T09:33:35;-5.80;99.90
8633;DHT22;4354;49.832;10.746;2022-12-18T09:36:05;-5.70;99.90
8633;DHT22;4354;49.832;10.746;2022-12-18T09:38:34;-5.60;99.90
8633;DHT22;4354;49.832;10.746;2022-12-18T09:41:15;-5.50;99.90
8633;DHT22;4354;49.832;10.746;2022-12-18T09:43:51;-5.40;99.90
8633;DHT22;4354;49.832;10.746;2022-12-18T09:46:33;-5.30;99.90
8633;DHT22;4354;49.832;10.746;2022-12-18T09:49:03;-5.20;99.90
8633;DHT22;4354;49.832;10.746;2022-12-18T09:51:39;-5.20;99.90
8633;DHT22;4354;49.832;10.746;2022-12-18T09:54:36;-5.00;99.90
8633;DHT22;4354;49.832;10.746;2022-12-18T09:57:05;-4.90;99.90
8633;DHT22;4354;49.832;10.746;2022-12-18T09:59:42;-4.80;99.90
8633;DHT22;4354;49.832;10.746;2022-12-18T10:02:20;-4.70;99.90
8633;DHT22;4354;49.832;10.746;2022-12-18T10:05:07;-4.50;99.90
8633;DHT22;4354;49.832;10.746;2022-12-18T10:10:46;-4.20;99.90
8633;DHT22;4354;49.832;10.746;2022-12-18T10:13:22;-4.10;99.90
8633;DHT22;4354;49.832;10.746;2022-12-18T10:21:10;-3.60;99.90
8633;DHT22;4354;49.832;10.746;2022-12-18T10:26:14;-3.40;99.90
8633;DHT22;4354;49.832;10.746;2022-12-18T10:28:42;-3.30;99.90
8633;DHT22;4354;49.832;10.746;2022-12-18T10:31:20;-3.30;99.90
8633;DHT22;4354;49.832;10.746;2022-12-18T10:33:51;-3.30;99.90
8633;DHT22;4354;49.832;10.746;2022-12-18T10:36:18;-3.30;99.90
8633;DHT22;4354;49.832;10.746;2022-12-18T10:38:44;-3.20;99.90
8633;DHT22;4354;49.832;10.746;2022-12-18T10:43:47;-3.10;99.90
8633;DHT22;4354;49.832;10.746;2022-12-18T10:46:17;-2.60;99.90
8633;DHT22;4354;49.832;10.746;2022-12-18T10:54:00;-2.50;99.90
8633;DHT22;4354;49.832;10.746;2022-12-18T10:56:30;-2.40;99.90
8633;DHT22;4354;49.832;10.746;2022-12-18T10:59:02;-2.20;99.90
8633;DHT22;4354;49.832;10.746;2022-12-18T11:04:24;-2.10;99.90
8633;DHT22;4354;49.832;10.746;2022-12-18T11:07:06;-2.00;99.90
8633;DHT22;4354;49.832;10.746;2022-12-18T11:09:35;-2.10;99.90
8633;DHT22;4354;49.832;10.746;2022-12-18T11:12:23;-2.00;99.90
8633;DHT22;4354;49.832;10.746;2022-12-18T11:14:52;-1.70;99.90
8633;DHT22;4354;49.832;10.746;2022-12-18T11:20:01;-1.40;99.90
8633;DHT22;4354;49.832;10.746;2022-12-18T11:22:30;-1.20;99.90
8633;DHT22;4354;49.832;10.746;2022-12-18T11:28:02;-1.00;99.90
8633;DHT22;4354;49.832;10.746;2022-12-18T11:30:35;-0.90;99.90
8633;DHT22;4354;49.832;10.746;2022-12-18T11:33:17;-0.80;99.90
8633;DHT22;4354;49.832;10.746;2022-12-18T11:35:56;-0.40;99.90
8633;DHT22;4354;49.832;10.746;2022-12-18T11:38:26;0.10;99.90
8633;DHT22;4354;49.832;10.746;2022-12-18T11:41:09;0.60;99.90
8633;DHT22;4354;49.832;10.746;2022-12-18T11:43:52;1.00;99.90
8633;DHT22;4354;49.832;10.746;2022-12-18T11:46:29;1.20;99.90
8633;DHT22;4354;49.832;10.746;2022-12-18T11:49:12;1.30;99.90
8633;DHT22;4354;49.832;10.746;2022-12-18T11:54:15;0.70;99.90
8633;DHT22;4354;49.832;10.746;2022-12-18T11:56:46;0.30;99.90
8633;DHT22;4354;49.832;10.746;2022-12-18T12:16:35;-1.20;99.90
8633;DHT22;4354;49.832;10.746;2022-12-18T12:19:26;-1.00;99.90
8633;DHT22;4354;49.832;10.746;2022-12-18T12:22:36;-0.80;99.90
8633;DHT22;4354;49.832;10.746;2022-12-18T12:28:31;-0.80;99.90
8633;DHT22;4354;49.832;10.746;2022-12-18T12:31:17;-0.50;99.90
8633;DHT22;4354;49.832;10.746;2022-12-18T12:34:01;-0.40;99.90
8633;DHT22;4354;49.832;10.746;2022-12-18T12:39:25;-0.10;99.90
8633;DHT22;4354;49.832;10.746;2022-12-18T12:41:53;-0.20;99.90
8633;DHT22;4354;49.832;10.746;2022-12-18T12:44:51;-0.10;99.90
8633;DHT22;4354;49.832;10.746;2022-12-18T12:47:27;-0.10;99.90
8633;DHT22;4354;49.832;10.746;2022-12-18T12:49:56;-0.10;99.90
8633;DHT22;4354;49.832;10.746;2022-12-18T12:52:29;0.00;99.90
8633;DHT22;4354;49.832;10.746;2022-12-18T12:54:57;0.10;99.90
8633;DHT22;4354;49.832;10.746;2022-12-18T12:57:33;0.00;99.90
8633;DHT22;4354;49.832;10.746;2022-12-18T13:02:39;-0.20;99.90
8633;DHT22;4354;49.832;10.746;2022-12-18T13:07:45;-0.40;99.90
8633;DHT22;4354;49.832;10.746;2022-12-18T13:18:26;-0.70;99.90
8633;DHT22;4354;49.832;10.746;2022-12-18T13:23:36;-0.80;99.90
8633;DHT22;4354;49.832;10.746;2022-12-18T13:31:01;-0.80;99.90
8633;DHT22;4354;49.832;10.746;2022-12-18T13:36:15;-1.00;99.90
8633;DHT22;4354;49.832;10.746;2022-12-18T13:38:43;-1.00;99.90
8633;DHT22;4354;49.832;10.746;2022-12-18T13:41:24;-1.10;99.90
8633;DHT22;4354;49.832;10.746;2022-12-18T13:43:55;-1.20;99.90
8633;DHT22;4354;49.832;10.746;2022-12-18T13:46:45;-1.30;99.90
8633;DHT22;4354;49.832;10.746;2022-12-18T13:51:46;-1.60;99.90
8633;DHT22;4354;49.832;10.746;2022-12-18T13:54:18;-1.60;99.90
8633;DHT22;4354;49.832;10.746;2022-12-18T13:56:48;-1.80;99.90
8633;DHT22;4354;49.832;10.746;2022-12-18T14:04:31;-1.90;99.90
8633;DHT22;4354;49.832;10.746;2022-12-18T14:07:01;-1.90;99.90
8633;DHT22;4354;49.832;10.746;2022-12-18T14:09:33;-2.00;99.90
8633;DHT22;4354;49.832;10.746;2022-12-18T14:12:02;-2.00;99.90
8633;DHT22;4354;49.832;10.746;2022-12-18T14:14:51;-2.10;99.90
8633;DHT22;4354;49.832;10.746;2022-12-18T14:17:20;-2.10;99.90
8633;DHT22;4354;49.832;10.746;2022-12-18T14:19:50;-2.20;99.90
8633;DHT22;4354;49.832;10.746;2022-12-18T14:22:25;-2.20;99.90
8633;DHT22;4354;49.832;10.746;2022-12-18T14:27:49;-2.30;99.90
8633;DHT22;4354;49.832;10.746;2022-12-18T14:33:16;-2.30;99.90
8633;DHT22;4354;49.832;10.746;2022-12-18T14:36:02;-2.30;99.90
8633;DHT22;4354;49.832;10.746;2022-12-18T14:38:37;-2.40;99.90
8633;DHT22;4354;49.832;10.746;2022-12-18T14:43:34;-2.50;99.90
8633;DHT22;4354;49.832;10.746;2022-12-18T14:46:03;-2.60;99.90
8633;DHT22;4354;49.832;10.746;2022-12-18T14:48:41;-2.50;99.90
8633;DHT22;4354;49.832;10.746;2022-12-18T14:51:26;-2.70;99.90
8633;DHT22;4354;49.832;10.746;2022-12-18T14:54:01;-2.80;99.90
8633;DHT22;4354;49.832;10.746;2022-12-18T14:56:34;-2.90;99.90
8633;DHT22;4354;49.832;10.746;2022-12-18T14:59:03;-2.90;99.90
8633;DHT22;4354;49.832;10.746;2022-12-18T15:01:34;-3.00;99.90
8633;DHT22;4354;49.832;10.746;2022-12-18T15:04:03;-2.90;99.90
8633;DHT22;4354;49.832;10.746;2022-12-18T15:09:02;-3.00;99.90
8633;DHT22;4354;49.832;10.746;2022-12-18T15:11:35;-3.20;99.90
8633;DHT22;4354;49.832;10.746;2022-12-18T15:14:22;-3.30;99.90
8633;DHT22;4354;49.832;10.746;2022-12-18T15:16:53;-3.40;99.90
8633;DHT22;4354;49.832;10.746;2022-12-18T15:19:22;-3.40;99.90
8633;DHT22;4354;49.832;10.746;2022-12-18T15:21:52;-3.40;99.90
8633;DHT22;4354;49.832;10.746;2022-12-18T15:24:24;-3.50;99.90
8633;DHT22;4354;49.832;10.746;2022-12-18T15:26:53;-3.60;99.90
8633;DHT22;4354;49.832;10.746;2022-12-18T15:29:21;-3.70;99.90
8633;DHT22;4354;49.832;10.746;2022-12-18T15:32:10;-3.90;99.90
8633;DHT22;4354;49.832;10.746;2022-12-18T15:34:42;-4.00;99.90
8633;DHT22;4354;49.832;10.746;2022-12-18T15:37:09;-4.10;99.90
8633;DHT22;4354;49.832;10.746;2022-12-18T15:39:35;-4.10;99.90
8633;DHT22;4354;49.832;10.746;2022-12-18T15:42:02;-4.20;99.90
8633;DHT22;4354;49.832;10.746;2022-12-18T15:44:47;-4.20;99.90
8633;DHT22;4354;49.832;10.746;2022-12-18T15:47:14;-4.30;99.90
8633;DHT22;4354;49.832;10.746;2022-12-18T15:49:41;-4.40;99.90
8633;DHT22;4354;49.832;10.746;2022-12-18T15:52:11;-4.50;99.90
8633;DHT22;4354;49.832;10.746;2022-12-18T15:54:38;-4.20;99.90
8633;DHT22;4354;49.832;10.746;2022-12-18T15:57:24;-4.60;99.90
8633;DHT22;4354;49.832;10.746;2022-12-18T15:59:55;-4.70;99.90
8633;DHT22;4354;49.832;10.746;2022-12-18T16:02:24;-4.80;99.90
8633;DHT22;4354;49.832;10.746;2022-12-18T16:04:52;-4.80;99.90
8633;DHT22;4354;49.832;10.746;2022-12-18T16:07:20;-4.80;99.90
8633;DHT22;4354;49.832;10.746;2022-12-18T16:09:52;-4.90;99.90
8633;DHT22;4354;49.832;10.746;2022-12-18T16:12:22;-4.90;99.90
8633;DHT22;4354;49.832;10.746;2022-12-18T16:14:50;-5.00;99.90
8633;DHT22;4354;49.832;10.746;2022-12-18T16:17:17;-5.00;99.90
8633;DHT22;4354;49.832;10.746;2022-12-18T16:19:44;-5.10;99.90
8633;DHT22;4354;49.832;10.746;2022-12-18T16:22:20;-5.10;99.90
8633;DHT22;4354;49.832;10.746;2022-12-18T16:24:50;-5.10;99.90
8633;DHT22;4354;49.832;10.746;2022-12-18T16:27:17;-5.10;99.90
8633;DHT22;4354;49.832;10.746;2022-12-18T16:29:45;-5.10;99.90
8633;DHT22;4354;49.832;10.746;2022-12-18T16:32:15;-5.10;99.90
8633;DHT22;4354;49.832;10.746;2022-12-18T16:34:43;-5.10;99.90
8633;DHT22;4354;49.832;10.746;2022-12-18T16:37:12;-5.10;99.90
8633;DHT22;4354;49.832;10.746;2022-12-18T16:39:39;-5.20;99.90
8633;DHT22;4354;49.832;10.746;2022-12-18T16:42:12;-5.20;99.90
8633;DHT22;4354;49.832;10.746;2022-12-18T16:44:41;-5.20;99.90
8633;DHT22;4354;49.832;10.746;2022-12-18T16:47:09;-5.20;99.90
8633;DHT22;4354;49.832;10.746;2022-12-18T16:49:39;-5.30;99.90
8633;DHT22;4354;49.832;10.746;2022-12-18T16:52:07;-5.30;99.90
8633;DHT22;4354;49.832;10.746;2022-12-18T16:54:34;-5.30;99.90
8633;DHT22;4354;49.832;10.746;2022-12-18T16:57:03;-5.30;99.90
8633;DHT22;4354;49.832;10.746;2022-12-18T16:59:31;-5.20;99.90
8633;DHT22;4354;49.832;10.746;2022-12-18T17:01:58;-5.20;99.90
8633;DHT22;4354;49.832;10.746;2022-12-18T17:04:25;-5.20;99.90
8633;DHT22;4354;49.832;10.746;2022-12-18T17:06:52;-5.10;99.90
8633;DHT22;4354;49.832;10.746;2022-12-18T17:09:21;-5.10;99.90
8633;DHT22;4354;49.832;10.746;2022-12-18T17:11:52;-5.10;99.90
8633;DHT22;4354;49.832;10.746;2022-12-18T17:14:22;-5.10;99.90
8633;DHT22;4354;49.832;10.746;2022-12-18T17:16:50;-5.10;99.90
8633;DHT22;4354;49.832;10.746;2022-12-18T17:19:37;-5.10;99.90
8633;DHT22;4354;49.832;10.746;2022-12-18T17:22:04;-5.10;99.90
8633;DHT22;4354;49.832;10.746;2022-12-18T17:24:31;-5.10;99.90
8633;DHT22;4354;49.832;10.746;2022-12-18T17:27:01;-5.10;99.90
8633;DHT22;4354;49.832;10.746;2022-12-18T17:29:28;-5.10;99.90
8633;DHT22;4354;49.832;10.746;2022-12-18T17:31:55;-5.10;99.90
8633;DHT22;4354;49.832;10.746;2022-12-18T17:34:25;-5.10;99.90
8633;DHT22;4354;49.832;10.746;2022-12-18T17:36:51;-5.10;99.90
8633;DHT22;4354;49.832;10.746;2022-12-18T17:39:19;-5.20;99.90
8633;DHT22;4354;49.832;10.746;2022-12-18T17:41:47;-5.20;99.90
8633;DHT22;4354;49.832;10.746;2022-12-18T17:44:15;-5.20;99.90
8633;DHT22;4354;49.832;10.746;2022-12-18T17:46:42;-5.20;99.90
8633;DHT22;4354;49.832;10.746;2022-12-18T17:49:10;-5.10;99.90
8633;DHT22;4354;49.832;10.746;2022-12-18T17:51:37;-5.10;99.90
8633;DHT22;4354;49.832;10.746;2022-12-18T17:54:04;-5.00;99.90
8633;DHT22;4354;49.832;10.746;2022-12-18T17:56:31;-5.00;99.90
8633;DHT22;4354;49.832;10.746;2022-12-18T17:58:59;-4.90;99.90
8633;DHT22;4354;49.832;10.746;2022-12-18T18:01:26;-4.80;99.90
8633;DHT22;4354;49.832;10.746;2022-12-18T18:03:53;-4.80;99.90
8633;DHT22;4354;49.832;10.746;2022-12-18T18:06:25;-4.70;99.90
8633;DHT22;4354;49.832;10.746;2022-12-18T18:08:52;-4.60;99.90
8633;DHT22;4354;49.832;10.746;2022-12-18T18:11:22;-4.50;99.90